Portada
METAR-TAF:

METAR-TAF

Aeroports :

Singapur, Singapur

latitud: 01-22N, longitud: 103-55E, altitud: 18 m

Observació

L'informe es va fer fa 21 minuts, a les 13:00 UTC
Vent calma
Temperatura 27°C
Humitat 94%
Pressió 1007 hPa
Visibilitat 10 km o més
Escasses núvols a una alçada de 1800 ft
Cel ennuvolat a una alçada de 30000 ft

METAR: WSAP 141300Z 00000KT 9999 FEW018 BKN300 27/26 Q1007

Hora: 21:21 (13:21 UTC)

Pronòstic

L'informe es va fer fa 2 hores i 21 minuts, a les 11:00 UTC
Pronòstic vàlid del 14 a les 12 UTC al 15 a les 18 UTC
Vent 7 kt del Sud/Sud-Oest
Visibilitat 10 km o més
Escasses núvols a una alçada de 1500 ft, Cumulonimbus.
Núvols disperses a una alçada de 2000 ft
Temporalment
l' 15 a les 00 UTC al 15 a les 04 UTC
Visibilitat: 3000 m
Escasses núvols a una alçada de 1200 ft, Cumulonimbus.
Cel ennuvolat a una alçada de 1500 ft
tempesta, pluja

TAF: WSAP 141100Z 1412/1518 20007KT 9999 FEW015CB SCT020 TEMPO 1500/1504 3000 TSRA FEW012CB BKN015

Observacions i pronòstics meteorològics de més de 4000 aeroports (METAR i TAF).

Les estacions disponibles són els punts grocs i vermells al mapa.

Posi el ratolí al punt desitjat per veure el nom de l'estació.

Feu clic per veure les observacions i els pronòstics meteorològics.

Per canviar el mapa: feu clic els botons verds amb una creu de color negre per apropar; al botó verd amb un guió per allunyar la imatge; o en les fletxes verdes per a mapes adjacents.


METAR-TAF: